Terminal Aerodrome Forecast
Issued by NWS Melbourne, FL

Home | Current Version | Previous Version | Text Only | Print | Product List | Glossary On
Versions: 1 2 3 4 5 6 7 8 9 10 11 12 13 14 15 16 17 18 19 20 21 22 23 24 25
000
FTUS42 KMLB 032326
TAFMCO
TAF
KMCO 032326Z 0400/0424 09012KT P6SM FEW040 SCT080
     FM040400 VRB02KT P6SM FEW080 SCT250
     FM041400 04010KT P6SM SCT040=

USA.gov is the U.S. government's official web portal to all federal, state and local government web resources and services.